sensor_id;sensor_type;location;lat;lon;timestamp;temperature;humidity
13412;DHT22;67102;51.666;6.880;2023-04-03T00:01:38;7.10;70.60
13412;DHT22;67102;51.666;6.880;2023-04-03T00:04:04;7.00;70.60
13412;DHT22;67102;51.666;6.880;2023-04-03T00:06:31;7.00;70.60
13412;DHT22;67102;51.666;6.880;2023-04-03T00:08:58;7.00;70.60
13412;DHT22;67102;51.666;6.880;2023-04-03T00:13:50;6.90;71.00
13412;DHT22;67102;51.666;6.880;2023-04-03T00:16:16;7.00;71.20
13412;DHT22;67102;51.666;6.880;2023-04-03T00:21:10;6.90;71.70
13412;DHT22;67102;51.666;6.880;2023-04-03T00:23:39;6.90;71.70
13412;DHT22;67102;51.666;6.880;2023-04-03T00:26:05;6.90;71.80
13412;DHT22;67102;51.666;6.880;2023-04-03T00:28:31;6.90;71.60
13412;DHT22;67102;51.666;6.880;2023-04-03T00:30:57;6.90;72.00
13412;DHT22;67102;51.666;6.880;2023-04-03T00:33:24;6.90;72.30
13412;DHT22;67102;51.666;6.880;2023-04-03T00:35:50;6.80;72.50
13412;DHT22;67102;51.666;6.880;2023-04-03T00:38:16;6.80;73.10
13412;DHT22;67102;51.666;6.880;2023-04-03T00:40:46;6.80;73.40
13412;DHT22;67102;51.666;6.880;2023-04-03T00:43:15;6.70;73.30
13412;DHT22;67102;51.666;6.880;2023-04-03T00:45:44;6.70;74.30
13412;DHT22;67102;51.666;6.880;2023-04-03T00:48:15;6.70;74.60
13412;DHT22;67102;51.666;6.880;2023-04-03T00:50:44;6.70;74.60
13412;DHT22;67102;51.666;6.880;2023-04-03T00:53:12;6.70;75.00
13412;DHT22;67102;51.666;6.880;2023-04-03T00:55:41;6.70;75.50
13412;DHT22;67102;51.666;6.880;2023-04-03T00:58:12;6.60;75.70
13412;DHT22;67102;51.666;6.880;2023-04-03T01:00:40;6.60;75.80
13412;DHT22;67102;51.666;6.880;2023-04-03T01:05:35;6.60;75.90
13412;DHT22;67102;51.666;6.880;2023-04-03T01:08:01;6.60;76.60
13412;DHT22;67102;51.666;6.880;2023-04-03T01:12:55;6.60;77.00
13412;DHT22;67102;51.666;6.880;2023-04-03T01:15:23;6.60;77.00
13412;DHT22;67102;51.666;6.880;2023-04-03T01:17:52;6.60;77.10
13412;DHT22;67102;51.666;6.880;2023-04-03T01:23:37;6.50;77.20
13412;DHT22;67102;51.666;6.880;2023-04-03T01:26:15;6.50;77.20
13412;DHT22;67102;51.666;6.880;2023-04-03T01:28:43;6.50;77.00
13412;DHT22;67102;51.666;6.880;2023-04-03T01:31:16;6.50;77.20
13412;DHT22;67102;51.666;6.880;2023-04-03T01:33:47;6.50;76.80
13412;DHT22;67102;51.666;6.880;2023-04-03T01:36:15;6.50;76.80
13412;DHT22;67102;51.666;6.880;2023-04-03T01:38:42;6.50;76.70
13412;DHT22;67102;51.666;6.880;2023-04-03T01:41:08;6.50;76.50
13412;DHT22;67102;51.666;6.880;2023-04-03T01:46:00;6.40;76.30
13412;DHT22;67102;51.666;6.880;2023-04-03T01:48:26;6.40;76.30
13412;DHT22;67102;51.666;6.880;2023-04-03T01:50:53;6.50;76.20
13412;DHT22;67102;51.666;6.880;2023-04-03T01:53:19;6.50;76.00
13412;DHT22;67102;51.666;6.880;2023-04-03T01:58:12;6.60;75.80
13412;DHT22;67102;51.666;6.880;2023-04-03T02:00:38;6.50;75.60
13412;DHT22;67102;51.666;6.880;2023-04-03T02:03:03;6.60;75.50
13412;DHT22;67102;51.666;6.880;2023-04-03T02:05:29;6.60;75.30
13412;DHT22;67102;51.666;6.880;2023-04-03T02:07:57;6.60;75.20
13412;DHT22;67102;51.666;6.880;2023-04-03T02:10:22;6.60;75.10
13412;DHT22;67102;51.666;6.880;2023-04-03T02:12:48;6.60;74.90
13412;DHT22;67102;51.666;6.880;2023-04-03T02:15:14;6.60;75.00
13412;DHT22;67102;51.666;6.880;2023-04-03T02:17:40;6.60;75.00
13412;DHT22;67102;51.666;6.880;2023-04-03T02:20:07;6.60;74.80
13412;DHT22;67102;51.666;6.880;2023-04-03T02:22:33;6.60;74.80
13412;DHT22;67102;51.666;6.880;2023-04-03T02:25:01;6.40;74.40
13412;DHT22;67102;51.666;6.880;2023-04-03T02:27:27;6.60;74.50
13412;DHT22;67102;51.666;6.880;2023-04-03T02:32:19;6.60;74.30
13412;DHT22;67102;51.666;6.880;2023-04-03T02:37:11;6.60;73.90
13412;DHT22;67102;51.666;6.880;2023-04-03T02:39:37;6.60;73.90
13412;DHT22;67102;51.666;6.880;2023-04-03T02:42:04;6.60;73.70
13412;DHT22;67102;51.666;6.880;2023-04-03T02:49:22;6.60;73.70
13412;DHT22;67102;51.666;6.880;2023-04-03T02:54:15;6.60;74.10
13412;DHT22;67102;51.666;6.880;2023-04-03T02:56:40;6.50;74.10
13412;DHT22;67102;51.666;6.880;2023-04-03T02:59:08;6.50;74.20
13412;DHT22;67102;51.666;6.880;2023-04-03T03:01:34;6.50;74.30
13412;DHT22;67102;51.666;6.880;2023-04-03T03:04:00;6.40;74.20
13412;DHT22;67102;51.666;6.880;2023-04-03T03:06:26;6.40;74.30
13412;DHT22;67102;51.666;6.880;2023-04-03T03:11:18;6.30;74.40
13412;DHT22;67102;51.666;6.880;2023-04-03T03:16:12;6.20;74.60
13412;DHT22;67102;51.666;6.880;2023-04-03T03:18:38;6.20;74.60
13412;DHT22;67102;51.666;6.880;2023-04-03T03:21:04;6.20;74.60
13412;DHT22;67102;51.666;6.880;2023-04-03T03:23:31;6.20;74.80
13412;DHT22;67102;51.666;6.880;2023-04-03T03:25:59;6.10;75.00
13412;DHT22;67102;51.666;6.880;2023-04-03T03:28:26;6.10;75.10
13412;DHT22;67102;51.666;6.880;2023-04-03T03:30:52;6.00;75.30
13412;DHT22;67102;51.666;6.880;2023-04-03T03:33:19;6.00;75.30
13412;DHT22;67102;51.666;6.880;2023-04-03T03:35:45;6.00;75.40
13412;DHT22;67102;51.666;6.880;2023-04-03T03:40:38;6.00;75.60
13412;DHT22;67102;51.666;6.880;2023-04-03T03:45:30;5.90;75.60
13412;DHT22;67102;51.666;6.880;2023-04-03T03:47:56;5.90;75.60
13412;DHT22;67102;51.666;6.880;2023-04-03T03:50:23;5.90;75.70
13412;DHT22;67102;51.666;6.880;2023-04-03T03:52:49;5.90;75.70
13412;DHT22;67102;51.666;6.880;2023-04-03T03:57:41;5.80;75.90
13412;DHT22;67102;51.666;6.880;2023-04-03T04:00:08;5.80;76.00
13412;DHT22;67102;51.666;6.880;2023-04-03T04:02:35;5.80;76.10
13412;DHT22;67102;51.666;6.880;2023-04-03T04:05:01;5.70;75.90
13412;DHT22;67102;51.666;6.880;2023-04-03T04:07:28;5.80;76.00
13412;DHT22;67102;51.666;6.880;2023-04-03T04:09:54;5.70;76.10
13412;DHT22;67102;51.666;6.880;2023-04-03T04:14:46;5.70;76.30
13412;DHT22;67102;51.666;6.880;2023-04-03T04:19:39;5.60;76.40
13412;DHT22;67102;51.666;6.880;2023-04-03T04:24:32;5.50;76.60
13412;DHT22;67102;51.666;6.880;2023-04-03T04:26:59;5.50;76.70
13412;DHT22;67102;51.666;6.880;2023-04-03T04:31:51;5.50;76.80
13412;DHT22;67102;51.666;6.880;2023-04-03T04:34:17;5.40;77.00
13412;DHT22;67102;51.666;6.880;2023-04-03T04:39:09;5.40;77.20
13412;DHT22;67102;51.666;6.880;2023-04-03T04:41:37;5.30;77.30
13412;DHT22;67102;51.666;6.880;2023-04-03T04:44:03;5.30;77.30
13412;DHT22;67102;51.666;6.880;2023-04-03T04:51:21;5.20;77.50
13412;DHT22;67102;51.666;6.880;2023-04-03T04:53:47;5.30;77.50
13412;DHT22;67102;51.666;6.880;2023-04-03T04:58:40;5.20;77.40
13412;DHT22;67102;51.666;6.880;2023-04-03T05:01:08;5.20;77.40
13412;DHT22;67102;51.666;6.880;2023-04-03T05:03:36;5.20;77.40
13412;DHT22;67102;51.666;6.880;2023-04-03T05:06:02;5.20;77.30
13412;DHT22;67102;51.666;6.880;2023-04-03T05:08:28;5.20;77.30
13412;DHT22;67102;51.666;6.880;2023-04-03T05:15:48;5.20;77.60
13412;DHT22;67102;51.666;6.880;2023-04-03T05:20:40;5.20;78.00
13412;DHT22;67102;51.666;6.880;2023-04-03T05:23:06;5.20;78.20
13412;DHT22;67102;51.666;6.880;2023-04-03T05:25:32;5.30;78.60
13412;DHT22;67102;51.666;6.880;2023-04-03T05:32:52;5.70;78.10
13412;DHT22;67102;51.666;6.880;2023-04-03T05:37:44;6.10;77.20
13412;DHT22;67102;51.666;6.880;2023-04-03T05:42:37;6.60;76.30
13412;DHT22;67102;51.666;6.880;2023-04-03T05:45:03;6.80;73.80
13412;DHT22;67102;51.666;6.880;2023-04-03T05:47:30;7.00;72.60
13412;DHT22;67102;51.666;6.880;2023-04-03T05:49:57;7.20;72.50
13412;DHT22;67102;51.666;6.880;2023-04-03T05:52:26;7.30;71.20
13412;DHT22;67102;51.666;6.880;2023-04-03T05:54:54;7.60;71.10
13412;DHT22;67102;51.666;6.880;2023-04-03T05:57:20;7.80;70.20
13412;DHT22;67102;51.666;6.880;2023-04-03T05:59:46;8.00;68.30
13412;DHT22;67102;51.666;6.880;2023-04-03T06:02:14;8.20;67.40
13412;DHT22;67102;51.666;6.880;2023-04-03T06:04:41;8.30;68.20
13412;DHT22;67102;51.666;6.880;2023-04-03T06:07:11;8.50;68.00
13412;DHT22;67102;51.666;6.880;2023-04-03T06:09:39;8.80;68.00
13412;DHT22;67102;51.666;6.880;2023-04-03T06:12:05;8.90;64.20
13412;DHT22;67102;51.666;6.880;2023-04-03T06:14:31;9.20;65.60
13412;DHT22;67102;51.666;6.880;2023-04-03T06:16:57;9.40;64.20
13412;DHT22;67102;51.666;6.880;2023-04-03T06:19:23;9.60;62.80
13412;DHT22;67102;51.666;6.880;2023-04-03T06:21:49;9.60;63.50
13412;DHT22;67102;51.666;6.880;2023-04-03T06:24:17;10.00;62.10
13412;DHT22;67102;51.666;6.880;2023-04-03T06:26:44;10.10;63.90
13412;DHT22;67102;51.666;6.880;2023-04-03T06:29:09;10.30;62.40
13412;DHT22;67102;51.666;6.880;2023-04-03T06:31:36;10.50;61.40
13412;DHT22;67102;51.666;6.880;2023-04-03T06:34:02;10.80;61.40
13412;DHT22;67102;51.666;6.880;2023-04-03T06:36:28;11.00;57.60
13412;DHT22;67102;51.666;6.880;2023-04-03T06:38:54;11.20;56.30
13412;DHT22;67102;51.666;6.880;2023-04-03T06:41:21;11.20;55.60
13412;DHT22;67102;51.666;6.880;2023-04-03T06:43:48;11.30;54.40
13412;DHT22;67102;51.666;6.880;2023-04-03T06:46:14;11.30;54.10
13412;DHT22;67102;51.666;6.880;2023-04-03T06:48:41;11.40;55.40
13412;DHT22;67102;51.666;6.880;2023-04-03T06:51:17;11.50;55.60
13412;DHT22;67102;51.666;6.880;2023-04-03T06:53:44;11.70;54.60
13412;DHT22;67102;51.666;6.880;2023-04-03T06:56:10;11.80;53.30
13412;DHT22;67102;51.666;6.880;2023-04-03T06:58:38;15.30;54.60
13412;DHT22;67102;51.666;6.880;2023-04-03T07:01:04;11.90;51.40
13412;DHT22;67102;51.666;6.880;2023-04-03T07:03:30;11.90;52.80
13412;DHT22;67102;51.666;6.880;2023-04-03T07:05:56;11.90;51.50
13412;DHT22;67102;51.666;6.880;2023-04-03T07:08:22;12.00;53.00
13412;DHT22;67102;51.666;6.880;2023-04-03T07:10:48;12.10;51.90
13412;DHT22;67102;51.666;6.880;2023-04-03T07:13:14;12.20;53.30
13412;DHT22;67102;51.666;6.880;2023-04-03T07:15:41;12.30;52.80
13412;DHT22;67102;51.666;6.880;2023-04-03T07:18:07;12.40;51.60
13412;DHT22;67102;51.666;6.880;2023-04-03T07:20:33;12.70;52.60
13412;DHT22;67102;51.666;6.880;2023-04-03T07:22:59;12.80;51.90
13412;DHT22;67102;51.666;6.880;2023-04-03T07:25:25;13.00;48.80
13412;DHT22;67102;51.666;6.880;2023-04-03T07:27:51;13.10;49.30
13412;DHT22;67102;51.666;6.880;2023-04-03T07:30:17;13.00;47.60
13412;DHT22;67102;51.666;6.880;2023-04-03T07:32:44;13.00;48.20
13412;DHT22;67102;51.666;6.880;2023-04-03T07:35:10;13.00;48.20
13412;DHT22;67102;51.666;6.880;2023-04-03T07:37:36;13.00;48.90
13412;DHT22;67102;51.666;6.880;2023-04-03T07:40:03;13.20;51.00
13412;DHT22;67102;51.666;6.880;2023-04-03T07:42:29;13.30;50.80
13412;DHT22;67102;51.666;6.880;2023-04-03T07:44:55;13.40;50.10
13412;DHT22;67102;51.666;6.880;2023-04-03T07:47:21;13.50;50.20
13412;DHT22;67102;51.666;6.880;2023-04-03T07:49:48;13.60;46.50
13412;DHT22;67102;51.666;6.880;2023-04-03T07:52:15;13.80;45.30
13412;DHT22;67102;51.666;6.880;2023-04-03T07:54:41;13.60;44.90
13412;DHT22;67102;51.666;6.880;2023-04-03T07:57:07;13.50;45.10
13412;DHT22;67102;51.666;6.880;2023-04-03T07:59:33;13.50;44.30
13412;DHT22;67102;51.666;6.880;2023-04-03T08:01:59;13.60;46.40
13412;DHT22;67102;51.666;6.880;2023-04-03T08:04:25;13.60;43.30
13412;DHT22;67102;51.666;6.880;2023-04-03T08:06:52;13.60;43.00
13412;DHT22;67102;51.666;6.880;2023-04-03T08:09:18;13.50;44.00
13412;DHT22;67102;51.666;6.880;2023-04-03T08:11:45;13.60;43.60
13412;DHT22;67102;51.666;6.880;2023-04-03T08:14:11;13.60;42.50
13412;DHT22;67102;51.666;6.880;2023-04-03T08:16:37;13.50;43.00
13412;DHT22;67102;51.666;6.880;2023-04-03T08:19:03;13.60;43.20
13412;DHT22;67102;51.666;6.880;2023-04-03T08:21:29;13.60;43.20
13412;DHT22;67102;51.666;6.880;2023-04-03T08:23:56;13.70;41.90
13412;DHT22;67102;51.666;6.880;2023-04-03T08:26:22;13.70;40.90
13412;DHT22;67102;51.666;6.880;2023-04-03T08:28:48;13.70;39.90
13412;DHT22;67102;51.666;6.880;2023-04-03T08:31:16;13.60;40.30
13412;DHT22;67102;51.666;6.880;2023-04-03T08:33:43;13.60;42.10
13412;DHT22;67102;51.666;6.880;2023-04-03T08:36:18;13.70;42.40
13412;DHT22;67102;51.666;6.880;2023-04-03T08:38:45;13.80;39.50
13412;DHT22;67102;51.666;6.880;2023-04-03T08:41:15;14.00;40.70
13412;DHT22;67102;51.666;6.880;2023-04-03T08:43:57;14.00;40.10
13412;DHT22;67102;51.666;6.880;2023-04-03T08:46:38;14.10;38.60
13412;DHT22;67102;51.666;6.880;2023-04-03T08:49:14;14.00;37.60
13412;DHT22;67102;51.666;6.880;2023-04-03T08:51:46;13.90;39.40
13412;DHT22;67102;51.666;6.880;2023-04-03T08:54:21;13.80;37.50
13412;DHT22;67102;51.666;6.880;2023-04-03T08:56:54;13.80;38.90
13412;DHT22;67102;51.666;6.880;2023-04-03T08:59:26;13.80;37.50
13412;DHT22;67102;51.666;6.880;2023-04-03T09:01:54;13.60;36.30
13412;DHT22;67102;51.666;6.880;2023-04-03T09:04:21;13.60;38.20
13412;DHT22;67102;51.666;6.880;2023-04-03T09:06:51;13.70;37.90
13412;DHT22;67102;51.666;6.880;2023-04-03T09:09:30;13.80;38.30
13412;DHT22;67102;51.666;6.880;2023-04-03T09:12:04;13.60;37.00
13412;DHT22;67102;51.666;6.880;2023-04-03T09:14:41;13.50;36.70
13412;DHT22;67102;51.666;6.880;2023-04-03T09:17:14;13.30;37.40
13412;DHT22;67102;51.666;6.880;2023-04-03T09:19:46;13.20;37.90
13412;DHT22;67102;51.666;6.880;2023-04-03T09:22:21;13.10;36.00
13412;DHT22;67102;51.666;6.880;2023-04-03T09:24:55;13.10;37.50
13412;DHT22;67102;51.666;6.880;2023-04-03T09:27:24;13.10;37.60
13412;DHT22;67102;51.666;6.880;2023-04-03T09:29:53;13.10;37.90
13412;DHT22;67102;51.666;6.880;2023-04-03T09:32:25;13.10;37.00
13412;DHT22;67102;51.666;6.880;2023-04-03T09:34:54;13.10;37.30
13412;DHT22;67102;51.666;6.880;2023-04-03T09:37:36;13.00;37.80
13412;DHT22;67102;51.666;6.880;2023-04-03T09:40:05;12.90;35.90
13412;DHT22;67102;51.666;6.880;2023-04-03T09:42:41;12.80;37.60
13412;DHT22;67102;51.666;6.880;2023-04-03T09:45:22;12.80;38.40
13412;DHT22;67102;51.666;6.880;2023-04-03T09:48:04;12.70;37.50
13412;DHT22;67102;51.666;6.880;2023-04-03T09:50:34;12.70;37.90
13412;DHT22;67102;51.666;6.880;2023-04-03T09:53:06;12.70;37.90
13412;DHT22;67102;51.666;6.880;2023-04-03T09:55:42;12.70;37.40
13412;DHT22;67102;51.666;6.880;2023-04-03T09:58:25;12.80;38.10
13412;DHT22;67102;51.666;6.880;2023-04-03T10:00:56;12.80;37.50
13412;DHT22;67102;51.666;6.880;2023-04-03T10:03:26;12.90;37.30
13412;DHT22;67102;51.666;6.880;2023-04-03T10:05:55;12.90;35.00
13412;DHT22;67102;51.666;6.880;2023-04-03T10:08:24;12.90;35.10
13412;DHT22;67102;51.666;6.880;2023-04-03T10:11:10;13.00;35.50
13412;DHT22;67102;51.666;6.880;2023-04-03T10:13:52;13.00;35.80
13412;DHT22;67102;51.666;6.880;2023-04-03T10:16:22;13.00;35.30
13412;DHT22;67102;51.666;6.880;2023-04-03T10:18:59;13.10;36.00
13412;DHT22;67102;51.666;6.880;2023-04-03T10:21:37;13.10;35.00
13412;DHT22;67102;51.666;6.880;2023-04-03T10:24:10;13.00;34.90
13412;DHT22;67102;51.666;6.880;2023-04-03T10:26:45;12.90;34.90
13412;DHT22;67102;51.666;6.880;2023-04-03T10:29:26;12.80;34.40
13412;DHT22;67102;51.666;6.880;2023-04-03T10:32:01;12.70;35.30
13412;DHT22;67102;51.666;6.880;2023-04-03T10:34:36;12.80;36.00
13412;DHT22;67102;51.666;6.880;2023-04-03T10:37:11;12.80;35.00
13412;DHT22;67102;51.666;6.880;2023-04-03T10:39:43;12.70;35.60
13412;DHT22;67102;51.666;6.880;2023-04-03T10:42:16;12.60;36.10
13412;DHT22;67102;51.666;6.880;2023-04-03T10:45:03;12.60;37.50
13412;DHT22;67102;51.666;6.880;2023-04-03T10:47:41;12.50;36.60
13412;DHT22;67102;51.666;6.880;2023-04-03T10:50:27;12.60;35.70
13412;DHT22;67102;51.666;6.880;2023-04-03T10:53:02;12.30;35.60
13412;DHT22;67102;51.666;6.880;2023-04-03T10:55:35;12.30;37.20
13412;DHT22;67102;51.666;6.880;2023-04-03T10:58:05;12.30;37.60
13412;DHT22;67102;51.666;6.880;2023-04-03T11:00:39;12.40;37.20
13412;DHT22;67102;51.666;6.880;2023-04-03T11:03:11;12.50;38.10
13412;DHT22;67102;51.666;6.880;2023-04-03T11:05:42;12.60;38.20
13412;DHT22;67102;51.666;6.880;2023-04-03T11:08:16;12.60;38.50
13412;DHT22;67102;51.666;6.880;2023-04-03T11:10:49;12.60;38.80
13412;DHT22;67102;51.666;6.880;2023-04-03T11:13:21;12.60;38.00
13412;DHT22;67102;51.666;6.880;2023-04-03T11:15:51;12.60;36.80
13412;DHT22;67102;51.666;6.880;2023-04-03T11:18:22;12.40;37.20
13412;DHT22;67102;51.666;6.880;2023-04-03T11:20:58;12.30;38.50
13412;DHT22;67102;51.666;6.880;2023-04-03T11:23:31;12.30;38.40
13412;DHT22;67102;51.666;6.880;2023-04-03T11:26:06;12.10;37.30
13412;DHT22;67102;51.666;6.880;2023-04-03T11:28:36;12.00;37.80
13412;DHT22;67102;51.666;6.880;2023-04-03T11:31:12;11.90;39.30
13412;DHT22;67102;51.666;6.880;2023-04-03T11:34:02;11.80;37.60
13412;DHT22;67102;51.666;6.880;2023-04-03T11:36:40;11.90;38.80
13412;DHT22;67102;51.666;6.880;2023-04-03T11:39:19;12.00;39.10
13412;DHT22;67102;51.666;6.880;2023-04-03T11:41:47;12.00;38.10
13412;DHT22;67102;51.666;6.880;2023-04-03T11:44:30;11.90;37.90
13412;DHT22;67102;51.666;6.880;2023-04-03T11:47:01;11.90;38.80
13412;DHT22;67102;51.666;6.880;2023-04-03T11:49:51;11.90;39.20
13412;DHT22;67102;51.666;6.880;2023-04-03T11:52:55;11.90;38.70
13412;DHT22;67102;51.666;6.880;2023-04-03T11:55:59;11.70;38.80
13412;DHT22;67102;51.666;6.880;2023-04-03T11:58:28;11.60;39.20
13412;DHT22;67102;51.666;6.880;2023-04-03T12:01:07;11.40;38.10
13412;DHT22;67102;51.666;6.880;2023-04-03T12:03:58;11.30;39.40
13412;DHT22;67102;51.666;6.880;2023-04-03T12:10:17;11.10;40.50
13412;DHT22;67102;51.666;6.880;2023-04-03T12:12:55;11.10;40.20
13412;DHT22;67102;51.666;6.880;2023-04-03T12:15:50;11.10;40.50
13412;DHT22;67102;51.666;6.880;2023-04-03T12:18:55;11.10;40.00
13412;DHT22;67102;51.666;6.880;2023-04-03T12:24:31;11.00;40.40
13412;DHT22;67102;51.666;6.880;2023-04-03T12:27:05;11.10;40.50
13412;DHT22;67102;51.666;6.880;2023-04-03T12:29:46;11.20;40.90
13412;DHT22;67102;51.666;6.880;2023-04-03T12:32:22;11.30;40.90
13412;DHT22;67102;51.666;6.880;2023-04-03T12:35:08;11.20;39.60
13412;DHT22;67102;51.666;6.880;2023-04-03T12:37:49;11.10;40.40
13412;DHT22;67102;51.666;6.880;2023-04-03T12:40:26;11.20;41.10
13412;DHT22;67102;51.666;6.880;2023-04-03T12:43:20;11.20;40.90
13412;DHT22;67102;51.666;6.880;2023-04-03T12:45:58;11.30;41.90
13412;DHT22;67102;51.666;6.880;2023-04-03T12:48:30;11.20;41.40
13412;DHT22;67102;51.666;6.880;2023-04-03T12:50:59;11.40;40.90
13412;DHT22;67102;51.666;6.880;2023-04-03T12:53:28;11.10;41.30
13412;DHT22;67102;51.666;6.880;2023-04-03T12:55:55;11.10;41.50
13412;DHT22;67102;51.666;6.880;2023-04-03T12:58:22;11.10;40.90
13412;DHT22;67102;51.666;6.880;2023-04-03T13:00:59;11.10;41.60
13412;DHT22;67102;51.666;6.880;2023-04-03T13:03:27;11.30;40.90
13412;DHT22;67102;51.666;6.880;2023-04-03T13:05:55;11.30;40.50
13412;DHT22;67102;51.666;6.880;2023-04-03T13:08:25;11.40;41.00
13412;DHT22;67102;51.666;6.880;2023-04-03T13:10:54;11.40;41.50
13412;DHT22;67102;51.666;6.880;2023-04-03T13:13:22;11.40;41.50
13412;DHT22;67102;51.666;6.880;2023-04-03T13:15:48;11.50;41.50
13412;DHT22;67102;51.666;6.880;2023-04-03T13:18:26;11.60;41.60
13412;DHT22;67102;51.666;6.880;2023-04-03T13:20:57;11.70;40.70
13412;DHT22;67102;51.666;6.880;2023-04-03T13:23:26;11.60;41.40
13412;DHT22;67102;51.666;6.880;2023-04-03T13:25:52;11.60;40.80
13412;DHT22;67102;51.666;6.880;2023-04-03T13:28:20;11.60;40.90
13412;DHT22;67102;51.666;6.880;2023-04-03T13:31:07;11.70;40.60
13412;DHT22;67102;51.666;6.880;2023-04-03T13:33:35;11.50;41.30
13412;DHT22;67102;51.666;6.880;2023-04-03T13:36:05;11.50;40.80
13412;DHT22;67102;51.666;6.880;2023-04-03T13:38:33;11.50;41.50
13412;DHT22;67102;51.666;6.880;2023-04-03T13:41:02;11.50;40.90
13412;DHT22;67102;51.666;6.880;2023-04-03T13:43:32;11.30;40.80
13412;DHT22;67102;51.666;6.880;2023-04-03T13:46:04;11.40;40.80
13412;DHT22;67102;51.666;6.880;2023-04-03T13:48:47;11.30;40.60
13412;DHT22;67102;51.666;6.880;2023-04-03T13:51:21;11.20;41.20
13412;DHT22;67102;51.666;6.880;2023-04-03T13:53:49;11.30;41.70
13412;DHT22;67102;51.666;6.880;2023-04-03T13:56:21;11.30;40.30
13412;DHT22;67102;51.666;6.880;2023-04-03T13:59:01;11.20;41.10
13412;DHT22;67102;51.666;6.880;2023-04-03T14:01:40;11.20;41.30
13412;DHT22;67102;51.666;6.880;2023-04-03T14:04:14;11.20;41.60
13412;DHT22;67102;51.666;6.880;2023-04-03T14:06:44;11.30;41.00
13412;DHT22;67102;51.666;6.880;2023-04-03T14:09:10;11.40;41.50
13412;DHT22;67102;51.666;6.880;2023-04-03T14:11:36;11.30;41.90
13412;DHT22;67102;51.666;6.880;2023-04-03T14:14:09;11.30;42.30
13412;DHT22;67102;51.666;6.880;2023-04-03T14:16:40;11.30;42.20
13412;DHT22;67102;51.666;6.880;2023-04-03T14:19:17;11.40;41.80
13412;DHT22;67102;51.666;6.880;2023-04-03T14:21:47;11.40;40.90
13412;DHT22;67102;51.666;6.880;2023-04-03T14:24:13;11.30;41.00
13412;DHT22;67102;51.666;6.880;2023-04-03T14:26:39;11.20;41.30
13412;DHT22;67102;51.666;6.880;2023-04-03T14:29:05;11.10;41.50
13412;DHT22;67102;51.666;6.880;2023-04-03T14:31:31;11.20;42.30
13412;DHT22;67102;51.666;6.880;2023-04-03T14:33:57;11.20;41.60
13412;DHT22;67102;51.666;6.880;2023-04-03T14:36:25;11.20;41.40
13412;DHT22;67102;51.666;6.880;2023-04-03T14:38:55;11.20;42.30
13412;DHT22;67102;51.666;6.880;2023-04-03T14:41:23;11.30;41.20
13412;DHT22;67102;51.666;6.880;2023-04-03T14:43:50;11.30;41.70
13412;DHT22;67102;51.666;6.880;2023-04-03T14:46:17;11.30;40.80
13412;DHT22;67102;51.666;6.880;2023-04-03T14:48:45;11.30;41.30
13412;DHT22;67102;51.666;6.880;2023-04-03T14:51:12;11.30;41.90
13412;DHT22;67102;51.666;6.880;2023-04-03T14:53:38;11.40;42.50
13412;DHT22;67102;51.666;6.880;2023-04-03T14:56:11;11.40;42.50
13412;DHT22;67102;51.666;6.880;2023-04-03T14:58:38;11.50;42.50
13412;DHT22;67102;51.666;6.880;2023-04-03T15:01:04;11.50;41.40
13412;DHT22;67102;51.666;6.880;2023-04-03T15:03:30;11.40;40.90
13412;DHT22;67102;51.666;6.880;2023-04-03T15:05:56;11.50;41.70
13412;DHT22;67102;51.666;6.880;2023-04-03T15:08:23;11.40;41.60
13412;DHT22;67102;51.666;6.880;2023-04-03T15:10:51;11.40;41.70
13412;DHT22;67102;51.666;6.880;2023-04-03T15:13:19;11.40;41.70
13412;DHT22;67102;51.666;6.880;2023-04-03T15:15:46;11.40;41.80
13412;DHT22;67102;51.666;6.880;2023-04-03T15:18:16;11.40;41.30
13412;DHT22;67102;51.666;6.880;2023-04-03T15:20:44;11.40;42.00
13412;DHT22;67102;51.666;6.880;2023-04-03T15:23:12;11.50;42.60
13412;DHT22;67102;51.666;6.880;2023-04-03T15:25:38;11.50;42.10
13412;DHT22;67102;51.666;6.880;2023-04-03T15:28:06;11.40;41.10
13412;DHT22;67102;51.666;6.880;2023-04-03T15:30:36;11.30;41.40
13412;DHT22;67102;51.666;6.880;2023-04-03T15:33:04;11.30;41.80
13412;DHT22;67102;51.666;6.880;2023-04-03T15:35:30;11.20;42.10
13412;DHT22;67102;51.666;6.880;2023-04-03T15:37:56;11.10;42.00
13412;DHT22;67102;51.666;6.880;2023-04-03T15:40:22;11.10;42.70
13412;DHT22;67102;51.666;6.880;2023-04-03T15:42:48;11.00;42.00
13412;DHT22;67102;51.666;6.880;2023-04-03T15:45:14;11.00;41.80
13412;DHT22;67102;51.666;6.880;2023-04-03T15:47:41;11.00;42.60
13412;DHT22;67102;51.666;6.880;2023-04-03T15:50:08;11.00;42.50
13412;DHT22;67102;51.666;6.880;2023-04-03T15:52:35;10.90;42.10
13412;DHT22;67102;51.666;6.880;2023-04-03T15:55:01;10.90;42.00
13412;DHT22;67102;51.666;6.880;2023-04-03T15:57:27;11.00;42.80
13412;DHT22;67102;51.666;6.880;2023-04-03T15:59:53;10.90;43.20
13412;DHT22;67102;51.666;6.880;2023-04-03T16:02:19;11.00;43.30
13412;DHT22;67102;51.666;6.880;2023-04-03T16:04:47;10.90;43.50
13412;DHT22;67102;51.666;6.880;2023-04-03T16:07:13;10.90;43.30
13412;DHT22;67102;51.666;6.880;2023-04-03T16:09:39;10.90;43.50
13412;DHT22;67102;51.666;6.880;2023-04-03T16:12:05;11.00;43.90
13412;DHT22;67102;51.666;6.880;2023-04-03T16:14:31;11.00;42.90
13412;DHT22;67102;51.666;6.880;2023-04-03T16:16:57;10.90;43.20
13412;DHT22;67102;51.666;6.880;2023-04-03T16:19:24;10.90;43.60
13412;DHT22;67102;51.666;6.880;2023-04-03T16:21:51;11.00;43.60
13412;DHT22;67102;51.666;6.880;2023-04-03T16:24:18;10.90;43.20
13412;DHT22;67102;51.666;6.880;2023-04-03T16:26:44;11.00;43.20
13412;DHT22;67102;51.666;6.880;2023-04-03T16:29:10;10.80;43.40
13412;DHT22;67102;51.666;6.880;2023-04-03T16:31:36;10.80;43.50
13412;DHT22;67102;51.666;6.880;2023-04-03T16:34:02;10.80;43.80
13412;DHT22;67102;51.666;6.880;2023-04-03T16:36:28;10.80;43.40
13412;DHT22;67102;51.666;6.880;2023-04-03T16:38:55;10.70;43.10
13412;DHT22;67102;51.666;6.880;2023-04-03T16:41:21;10.80;43.70
13412;DHT22;67102;51.666;6.880;2023-04-03T16:43:47;10.70;43.20
13412;DHT22;67102;51.666;6.880;2023-04-03T16:46:13;10.70;42.70
13412;DHT22;67102;51.666;6.880;2023-04-03T16:48:39;10.70;43.10
13412;DHT22;67102;51.666;6.880;2023-04-03T16:51:05;10.70;42.70
13412;DHT22;67102;51.666;6.880;2023-04-03T16:53:31;10.60;42.70
13412;DHT22;67102;51.666;6.880;2023-04-03T16:55:58;10.60;43.00
13412;DHT22;67102;51.666;6.880;2023-04-03T16:58:24;10.60;43.10
13412;DHT22;67102;51.666;6.880;2023-04-03T17:00:50;10.80;43.40
13412;DHT22;67102;51.666;6.880;2023-04-03T17:03:16;10.60;42.90
13412;DHT22;67102;51.666;6.880;2023-04-03T17:05:42;10.60;43.20
13412;DHT22;67102;51.666;6.880;2023-04-03T17:08:08;10.70;43.20
13412;DHT22;67102;51.666;6.880;2023-04-03T17:10:34;10.70;42.90
13412;DHT22;67102;51.666;6.880;2023-04-03T17:13:01;10.70;42.80
13412;DHT22;67102;51.666;6.880;2023-04-03T17:15:27;10.70;42.40